Meath Environmental Platform

Observations for Trim Market St

Time AQI Temp °C Hum % Pres Pa CO μg/m³ H₂S μg/m³ NO μg/m³ NO₂ μg/m³ O₃ μg/m³ SO₂ μg/m³ PM1 μg/m³ PM2.5 μg/m³ PM10 μg/m³
Thursday 9 July 2026
03:40 1 17.2 73 49,265 0 0 0 1.45 12.73 0 0.71 2.93 6.92
03:39 1 17.2 73 49,407 0 0 0 2.76 13.69 0 2.14 3.41 5.7
03:37 1 17.3 72 49,770 0 0 0 2.15 14 0 2.85 3.9 6.31
03:36 1 17.3 72 49,941 0 0 0 1.65 14.45 0 0.71 3.9 6.31
03:35 1 17.3 72 50,115 0 0 0 4.36 11.72 0 1.43 3.42 5.69
03:33 1 17.4 72 50,488 0 0 0 2.23 13.37 0 0.71 3.42 6.92
03:31 1 17.5 72 50,800 0 0 0 1.42 14.69 0 1.43 3.43 5.69
03:30 1 17.5 72 50,924 0 0 0 4.42 12.52 0 2.14 4.39 6.92
03:29 1 17.5 72 51,086 0 0 0.6 1.62 12.18 0 1.43 3.91 6.3
03:27 1 17.5 72 51,217 0 0 0 0.54 18.6 0 2.14 4.4 7.53
03:23 1 17.7 72 51,312 0 0 0 3.6 9.18 0 1.43 3.44 5.69
03:18 1 17.8 72 51,735 0 0 0 1.08 12.13 0 1.43 2.96 5.07
03:13 1 17.9 72 52,130 0 0 0 2.88 9.89 0 1.43 3.46 5.68
03:12 1 17.9 72 52,234 0 0 0 0.78 15.58 0 2.14 3.94 6.3
03:10 1 18 72 52,275 0 0 0 1.85 12.97 0 1.43 2.97 5.06
03:09 1 18 72 52,296 0 0 0 2.55 12.78 0 1.43 2.97 5.06
03:08 1 18 72 52,318 0 0 0 2.35 8.66 0 1.43 3.46 6.3
03:07 1 18 72 52,314 0 0 0 0 12.39 0 1.43 2.97 5.06
03:06 1 18 72 52,263 0 0 0 2.55 9.57 0 0.71 2.49 4.45
03:05 1 18.1 72 52,232 0 0 0 2.63 12.89 0 2.14 3.94 6.3